createdAt,value
2018-08-20T00:01:00.115Z,5.40
2018-08-20T00:03:30.435Z,7.03
2018-08-20T00:05:58.528Z,6.80
2018-08-20T00:08:26.586Z,6.60
2018-08-20T00:10:57.258Z,5.33
2018-08-20T00:13:26.052Z,4.83
2018-08-20T00:15:54.584Z,5.70
2018-08-20T00:18:27.931Z,5.57
2018-08-20T00:20:56.005Z,4.80
2018-08-20T00:23:24.672Z,5.40
2018-08-20T00:25:55.595Z,5.40
2018-08-20T00:28:23.647Z,7.63
2018-08-20T00:30:58.450Z,5.53
2018-08-20T00:33:26.566Z,6.40
2018-08-20T00:35:54.635Z,5.90
2018-08-20T00:38:22.696Z,5.40
2018-08-20T00:40:50.774Z,7.20
2018-08-20T00:43:18.872Z,5.03
2018-08-20T00:45:46.988Z,6.67
2018-08-20T00:48:15.050Z,6.00
2018-08-20T00:50:43.149Z,8.17
2018-08-20T00:53:11.225Z,7.00
2018-08-20T00:55:39.296Z,6.43
2018-08-20T00:58:07.351Z,5.70
2018-08-20T01:00:35.451Z,7.47
2018-08-20T01:03:03.521Z,4.80
2018-08-20T01:05:31.578Z,5.50
2018-08-20T01:07:59.660Z,5.73
2018-08-20T01:10:27.739Z,5.27
2018-08-20T01:12:55.804Z,5.43
2018-08-20T01:15:23.875Z,6.40
2018-08-20T01:17:51.956Z,6.10
2018-08-20T01:20:20.097Z,6.03
2018-08-20T01:22:48.179Z,8.67
2018-08-20T01:25:16.234Z,6.20
2018-08-20T01:27:49.797Z,7.30
2018-08-20T01:30:17.991Z,4.43
2018-08-20T01:32:46.076Z,6.50
2018-08-20T01:35:24.871Z,5.50
2018-08-20T01:37:52.952Z,7.90
2018-08-20T01:40:21.134Z,4.97
2018-08-20T01:42:49.199Z,7.13
2018-08-20T01:45:17.695Z,5.90
2018-08-20T01:47:45.759Z,7.87
2018-08-20T01:50:13.834Z,5.50
2018-08-20T01:52:41.933Z,6.80
2018-08-20T01:55:09.982Z,5.70
2018-08-20T01:57:38.052Z,7.90
2018-08-20T02:00:06.486Z,6.60
2018-08-20T02:02:34.548Z,5.57
2018-08-20T02:05:02.609Z,5.60
2018-08-20T02:07:30.726Z,5.77
2018-08-20T02:09:58.791Z,5.47
2018-08-20T02:12:26.871Z,5.73
2018-08-20T02:14:54.940Z,7.13
2018-08-20T02:17:23.059Z,5.30
2018-08-20T02:19:51.104Z,4.63
2018-08-20T02:22:19.240Z,7.17
2018-08-20T02:24:47.307Z,7.30
2018-08-20T02:27:15.392Z,6.30
2018-08-20T02:29:43.445Z,7.77
2018-08-20T02:32:11.512Z,6.60
2018-08-20T02:34:39.569Z,6.23
2018-08-20T02:37:07.664Z,7.23
2018-08-20T02:39:35.731Z,5.70
2018-08-20T02:42:03.808Z,6.60
2018-08-20T02:44:31.859Z,7.73
2018-08-20T02:46:59.943Z,6.13
2018-08-20T02:49:28.026Z,8.57
2018-08-20T02:51:56.103Z,6.70
2018-08-20T02:54:24.175Z,6.17
2018-08-20T02:56:52.263Z,6.90
2018-08-20T02:59:20.398Z,5.80
2018-08-20T03:01:48.518Z,5.77
2018-08-20T03:04:16.594Z,5.83
2018-08-20T03:06:44.635Z,4.80
2018-08-20T03:09:15.011Z,4.80
2018-08-20T03:11:43.065Z,5.93
2018-08-20T03:14:11.719Z,6.10
2018-08-20T03:16:39.815Z,6.27
2018-08-20T03:19:08.896Z,6.27
2018-08-20T03:21:36.968Z,6.60
2018-08-20T03:24:05.111Z,5.80
2018-08-20T03:26:33.156Z,6.03
2018-08-20T03:29:01.427Z,6.10
2018-08-20T03:31:29.745Z,5.27
2018-08-20T03:33:57.872Z,8.27
2018-08-20T03:36:26.059Z,9.30
2018-08-20T03:38:54.136Z,6.40
2018-08-20T03:41:22.208Z,6.40
2018-08-20T03:43:50.633Z,6.40
2018-08-20T03:46:18.702Z,6.80
2018-08-20T03:48:46.802Z,6.53
2018-08-20T03:51:14.869Z,6.53
2018-08-20T03:53:42.960Z,10.50
2018-08-20T03:56:11.051Z,7.20
2018-08-20T03:58:39.137Z,5.90
2018-08-20T04:01:07.204Z,5.20
2018-08-20T04:03:35.295Z,8.13
2018-08-20T04:06:03.741Z,6.40
2018-08-20T04:08:31.800Z,6.60
2018-08-20T04:11:00.039Z,5.90
2018-08-20T04:13:28.131Z,5.60
2018-08-20T04:15:56.200Z,9.03
2018-08-20T04:18:24.271Z,8.00
2018-08-20T04:20:52.360Z,8.43
2018-08-20T04:23:20.452Z,6.73
2018-08-20T04:25:48.535Z,6.10
2018-08-20T04:28:16.627Z,5.50
2018-08-20T04:30:44.751Z,5.87
2018-08-20T04:33:12.796Z,5.37
2018-08-20T04:35:40.888Z,6.83
2018-08-20T04:38:08.989Z,6.57
2018-08-20T04:40:37.114Z,6.57
2018-08-20T04:43:05.191Z,7.30
2018-08-20T04:45:33.295Z,7.07
2018-08-20T04:48:01.350Z,9.70
2018-08-20T04:50:29.633Z,13.60
2018-08-20T04:52:57.483Z,8.50
2018-08-20T04:55:25.550Z,11.00
2018-08-20T04:57:53.676Z,7.60
2018-08-20T05:00:21.779Z,9.90
2018-08-20T05:02:49.851Z,6.20
2018-08-20T05:05:17.924Z,6.83
2018-08-20T05:07:46.018Z,8.00
2018-08-20T05:10:14.085Z,7.23
2018-08-20T05:12:42.143Z,7.20
2018-08-20T05:15:10.225Z,9.17
2018-08-20T05:17:38.302Z,8.30
2018-08-20T05:20:07.027Z,7.90
2018-08-20T05:22:35.148Z,6.03
2018-08-20T05:25:03.201Z,9.13
2018-08-20T05:27:31.273Z,7.70
2018-08-20T05:29:59.346Z,5.50
2018-08-20T05:32:27.404Z,6.17
2018-08-20T05:34:55.487Z,4.63
2018-08-20T05:37:23.552Z,6.80
2018-08-20T05:39:51.684Z,9.00
2018-08-20T05:42:19.744Z,6.13
2018-08-20T05:44:47.818Z,7.13
2018-08-20T05:47:15.932Z,9.53
2018-08-20T05:49:43.995Z,9.33
2018-08-20T05:52:12.067Z,8.67
2018-08-20T05:54:40.128Z,9.37
2018-08-20T05:57:08.360Z,9.33
2018-08-20T05:59:36.439Z,6.17
2018-08-20T06:02:04.526Z,7.40
2018-08-20T06:04:32.600Z,8.43
2018-08-20T06:07:00.656Z,10.27
2018-08-20T06:09:28.736Z,6.87
2018-08-20T06:11:56.783Z,6.40
2018-08-20T06:14:24.873Z,8.33
2018-08-20T06:16:52.958Z,7.67
2018-08-20T06:19:21.051Z,6.40
2018-08-20T06:21:49.124Z,8.03
2018-08-20T06:24:17.247Z,6.70
2018-08-20T06:26:45.332Z,7.03
2018-08-20T06:29:13.444Z,5.93
2018-08-20T06:31:41.508Z,6.90
2018-08-20T06:34:09.626Z,8.47
2018-08-20T06:36:37.695Z,6.87
2018-08-20T06:39:07.523Z,6.77
2018-08-20T06:41:35.614Z,6.07
2018-08-20T06:44:03.787Z,9.50
2018-08-20T06:46:31.851Z,7.33
2018-08-20T06:48:59.943Z,6.40
2018-08-20T06:51:28.014Z,7.60
2018-08-20T06:53:56.245Z,6.47
2018-08-20T06:56:24.314Z,4.90
2018-08-20T06:58:52.379Z,6.37
2018-08-20T07:01:20.443Z,7.47
2018-08-20T07:03:48.528Z,5.83
2018-08-20T07:06:16.649Z,7.67
2018-08-20T07:08:44.694Z,8.00
2018-08-20T07:11:12.790Z,7.20
2018-08-20T07:13:40.853Z,7.53
2018-08-20T07:16:09.243Z,11.13
2018-08-20T07:18:37.311Z,8.27
2018-08-20T07:21:05.396Z,7.27
2018-08-20T07:23:33.593Z,7.43
2018-08-20T07:26:01.565Z,6.70
2018-08-20T07:28:29.660Z,6.17
2018-08-20T07:30:57.878Z,5.90
2018-08-20T07:33:25.997Z,7.80
2018-08-20T07:35:54.116Z,6.20
2018-08-20T07:38:22.224Z,6.63
2018-08-20T07:40:50.400Z,5.97
2018-08-20T07:43:18.487Z,6.83
2018-08-20T07:45:46.611Z,8.60
2018-08-20T07:48:14.842Z,7.03
2018-08-20T07:50:42.971Z,5.87
2018-08-20T07:53:11.034Z,6.13
2018-08-20T07:55:39.157Z,6.70
2018-08-20T07:58:07.552Z,8.17
2018-08-20T08:00:35.644Z,9.10
2018-08-20T08:03:03.774Z,6.60
2018-08-20T08:05:31.856Z,6.43
2018-08-20T08:07:59.915Z,7.00
2018-08-20T08:10:28.100Z,7.07
2018-08-20T08:12:56.256Z,5.93
2018-08-20T08:15:24.336Z,6.17
2018-08-20T08:17:52.483Z,6.83
2018-08-20T08:20:20.485Z,9.60
2018-08-20T08:22:48.559Z,6.40
2018-08-20T08:25:16.667Z,6.90
2018-08-20T08:27:44.771Z,9.30
2018-08-20T08:30:18.047Z,7.23
2018-08-20T08:32:46.515Z,9.20
2018-08-20T08:35:14.918Z,7.00
2018-08-20T08:37:43.159Z,7.80
2018-08-20T08:40:12.896Z,7.90
2018-08-20T08:42:40.968Z,6.50
2018-08-20T08:45:12.391Z,6.70
2018-08-20T08:47:40.755Z,6.27
2018-08-20T08:50:08.957Z,8.27
2018-08-20T08:52:37.117Z,6.73
2018-08-20T08:55:05.958Z,14.80
2018-08-20T08:57:34.083Z,6.87
2018-08-20T09:00:02.236Z,7.50
2018-08-20T09:02:30.348Z,7.50
2018-08-20T09:04:58.436Z,6.87
2018-08-20T09:07:26.541Z,9.17
2018-08-20T09:09:54.651Z,6.80
2018-08-20T09:12:22.751Z,6.77
2018-08-20T09:14:50.867Z,7.90
2018-08-20T09:17:18.983Z,6.87
2018-08-20T09:19:47.724Z,7.17
2018-08-20T09:22:15.925Z,6.83
2018-08-20T09:24:44.154Z,8.30
2018-08-20T09:27:12.353Z,6.83
2018-08-20T09:29:40.560Z,7.70
2018-08-20T09:32:08.835Z,6.90
2018-08-20T09:34:36.971Z,6.93
2018-08-20T09:37:05.095Z,6.90
2018-08-20T09:39:33.284Z,8.97
2018-08-20T09:42:01.408Z,8.40
2018-08-20T09:44:29.630Z,6.30
2018-08-20T09:46:57.783Z,8.67
2018-08-20T09:49:25.903Z,6.67
2018-08-20T09:51:54.132Z,7.00
2018-08-20T09:54:22.380Z,6.03
2018-08-20T09:56:50.680Z,6.90
2018-08-20T09:59:18.871Z,6.67
2018-08-20T10:01:47.088Z,8.10
2018-08-20T10:07:17.766Z,7.73
2018-08-20T10:09:45.974Z,6.63
2018-08-20T10:12:14.131Z,7.40
2018-08-20T10:14:42.262Z,8.90
2018-08-20T10:17:10.364Z,8.10
2018-08-20T10:19:39.463Z,6.97
2018-08-20T10:22:07.591Z,6.97
2018-08-20T10:24:35.819Z,6.90
2018-08-20T10:27:03.879Z,13.27
2018-08-20T10:29:31.979Z,7.20
2018-08-20T10:32:00.089Z,8.73
2018-08-20T10:34:28.136Z,6.90
2018-08-20T10:36:56.223Z,9.13
2018-08-20T10:39:24.305Z,6.50
2018-08-20T10:41:52.394Z,7.60
2018-08-20T10:44:20.443Z,9.60
2018-08-20T10:46:48.529Z,8.90
2018-08-20T10:49:17.192Z,6.10
2018-08-20T10:51:45.259Z,5.37
2018-08-20T10:54:13.440Z,5.40
2018-08-20T10:56:42.449Z,6.37
2018-08-20T10:59:10.552Z,7.63
2018-08-20T11:01:38.980Z,4.90
2018-08-20T11:04:07.464Z,4.63
2018-08-20T11:06:35.531Z,5.70
2018-08-20T11:09:03.783Z,4.93
2018-08-20T11:11:38.209Z,3.53
2018-08-20T11:14:09.703Z,3.30
2018-08-20T11:16:41.526Z,8.53
2018-08-20T11:19:10.649Z,4.67
2018-08-20T11:21:38.741Z,2.67
2018-08-20T11:24:06.832Z,4.87
2018-08-20T11:26:34.916Z,3.70
2018-08-20T11:29:03.059Z,3.30
2018-08-20T11:31:31.176Z,3.00
2018-08-20T11:33:59.258Z,3.00
2018-08-20T11:36:27.370Z,3.83
2018-08-20T11:38:55.443Z,2.80
2018-08-20T11:41:23.528Z,3.40
2018-08-20T11:43:51.611Z,8.73
2018-08-20T11:46:19.671Z,2.90
2018-08-20T11:48:47.748Z,2.90
2018-08-20T11:51:15.802Z,3.20
2018-08-20T11:53:44.185Z,3.50
2018-08-20T11:56:12.253Z,3.50
2018-08-20T11:58:40.341Z,5.87
2018-08-20T12:01:08.584Z,14.50
2018-08-20T12:03:36.649Z,5.13
2018-08-20T12:06:09.235Z,4.97
2018-08-20T12:08:37.309Z,2.90
2018-08-20T12:11:05.920Z,3.70
2018-08-20T12:13:34.025Z,3.10
2018-08-20T12:16:02.127Z,3.27
2018-08-20T12:18:34.087Z,4.07
2018-08-20T12:21:02.192Z,7.63
2018-08-20T12:23:30.631Z,3.87
2018-08-20T12:25:58.804Z,6.60
2018-08-20T12:28:26.891Z,4.07
2018-08-20T12:30:55.007Z,4.30
2018-08-20T12:33:23.119Z,3.33
2018-08-20T12:35:51.235Z,3.93
2018-08-20T12:38:19.344Z,3.80
2018-08-20T12:40:47.451Z,4.07
2018-08-20T12:43:15.549Z,4.13
2018-08-20T12:45:43.594Z,6.60
2018-08-20T12:48:11.648Z,12.07
2018-08-20T12:50:39.750Z,3.13
2018-08-20T12:53:07.944Z,5.13
2018-08-20T12:55:36.051Z,3.37
2018-08-20T12:58:04.132Z,5.20
2018-08-20T13:00:32.247Z,3.43
2018-08-20T13:03:00.274Z,2.53
2018-08-20T13:05:28.349Z,3.53
2018-08-20T13:08:03.040Z,3.00
2018-08-20T13:10:31.105Z,2.97
2018-08-20T13:12:59.164Z,4.63
2018-08-20T13:15:27.231Z,3.17
2018-08-20T13:17:55.300Z,4.07
2018-08-20T13:20:23.383Z,3.47
2018-08-20T13:22:51.449Z,2.87
2018-08-20T13:25:19.518Z,3.70
2018-08-20T13:27:47.580Z,3.97
2018-08-20T13:30:15.648Z,4.57
2018-08-20T13:32:43.729Z,4.13
2018-08-20T13:35:11.807Z,7.60
2018-08-20T13:37:39.919Z,3.80
2018-08-20T13:40:07.985Z,3.10
2018-08-20T13:42:36.047Z,6.80
2018-08-20T13:45:04.293Z,5.73
2018-08-20T13:47:32.384Z,4.33
2018-08-20T13:50:05.859Z,6.83
2018-08-20T13:52:34.641Z,3.80
2018-08-20T13:55:02.900Z,3.50
2018-08-20T13:57:35.273Z,5.20
2018-08-20T14:00:03.528Z,4.27
2018-08-20T14:02:31.727Z,3.13
2018-08-20T14:04:59.932Z,3.13
2018-08-20T14:07:28.120Z,4.97
2018-08-20T14:09:56.324Z,4.23
2018-08-20T14:12:25.016Z,3.20
2018-08-20T14:14:53.224Z,3.50
2018-08-20T14:17:21.420Z,2.60
2018-08-20T14:19:49.657Z,2.53
2018-08-20T14:22:17.827Z,3.77
2018-08-20T14:24:46.083Z,2.57
2018-08-20T14:27:14.318Z,2.13
2018-08-20T14:29:42.539Z,2.70
2018-08-20T14:32:13.752Z,3.00
2018-08-20T14:34:41.945Z,9.57
2018-08-20T14:37:10.130Z,7.47
2018-08-20T14:39:38.429Z,2.57
2018-08-20T14:42:06.963Z,2.50
2018-08-20T14:44:35.150Z,2.53
2018-08-20T14:47:03.873Z,2.30
2018-08-20T14:49:54.184Z,3.10
2018-08-20T14:52:23.957Z,2.83
2018-08-20T14:54:57.027Z,3.47
2018-08-20T14:57:25.215Z,5.73
2018-08-20T14:59:53.973Z,2.90
2018-08-20T15:02:39.164Z,3.23
2018-08-20T15:05:08.905Z,2.37
2018-08-20T15:07:37.823Z,2.30
2018-08-20T15:10:23.393Z,2.57
2018-08-20T15:12:56.964Z,2.43
2018-08-20T15:15:26.250Z,4.83
2018-08-20T15:21:14.283Z,2.80
2018-08-20T15:26:44.295Z,2.93
2018-08-20T15:32:08.251Z,3.50
2018-08-20T15:40:21.576Z,2.83
2018-08-20T15:42:49.788Z,3.67
2018-08-20T15:45:18.007Z,3.80
2018-08-20T15:47:46.184Z,2.40
2018-08-20T15:50:14.364Z,4.03
2018-08-20T15:52:42.544Z,2.87
2018-08-20T15:55:10.753Z,2.80
2018-08-20T15:57:38.959Z,2.77
2018-08-20T16:00:08.408Z,4.43
2018-08-20T16:02:36.592Z,3.03
2018-08-20T16:05:04.680Z,2.73
2018-08-20T16:07:32.748Z,2.87
2018-08-20T16:10:00.819Z,3.27
2018-08-20T16:12:28.881Z,4.27
2018-08-20T16:14:56.967Z,2.60
2018-08-20T16:17:25.042Z,3.00
2018-08-20T16:19:53.117Z,9.13
2018-08-20T16:22:21.170Z,3.23
2018-08-20T16:24:49.276Z,2.70
2018-08-20T16:27:17.380Z,2.70
2018-08-20T16:29:45.436Z,2.83
2018-08-20T16:32:13.533Z,5.27
2018-08-20T16:34:41.600Z,2.40
2018-08-20T16:37:09.656Z,3.40
2018-08-20T16:39:37.963Z,4.17
2018-08-20T16:42:06.065Z,2.43
2018-08-20T16:44:34.218Z,2.50
2018-08-20T16:47:02.353Z,2.20
2018-08-20T16:49:30.513Z,3.77
2018-08-20T16:51:58.599Z,2.67
2018-08-20T16:54:26.678Z,2.43
2018-08-20T16:56:54.768Z,3.60
2018-08-20T16:59:22.877Z,3.67
2018-08-20T17:01:50.942Z,2.93
2018-08-20T17:04:30.972Z,3.07
2018-08-20T17:07:01.283Z,3.13
2018-08-20T17:09:29.887Z,2.83
2018-08-20T17:11:57.987Z,3.47
2018-08-20T17:14:26.067Z,3.73
2018-08-20T17:16:54.320Z,4.60
2018-08-20T17:19:22.459Z,3.27
2018-08-20T17:21:50.540Z,3.73
2018-08-20T17:24:26.924Z,3.30
2018-08-20T17:26:56.511Z,3.07
2018-08-20T17:29:24.624Z,3.77
2018-08-20T17:31:52.716Z,3.57
2018-08-20T17:34:20.804Z,3.77
2018-08-20T17:36:48.863Z,2.97
2018-08-20T17:39:17.156Z,3.50
2018-08-20T17:41:47.017Z,3.20
2018-08-20T17:44:15.497Z,2.30
2018-08-20T17:46:43.628Z,3.23
2018-08-20T17:49:13.119Z,2.67
2018-08-20T17:51:41.691Z,2.53
2018-08-20T17:54:10.073Z,2.30
2018-08-20T17:56:38.280Z,3.03
2018-08-20T17:59:11.334Z,2.67
2018-08-20T18:01:47.724Z,5.13
2018-08-20T18:04:19.892Z,2.00
2018-08-20T18:06:52.376Z,2.57
2018-08-20T18:09:20.589Z,2.90
2018-08-20T18:11:57.848Z,2.10
2018-08-20T18:14:26.933Z,2.80
2018-08-20T18:16:55.109Z,2.20
2018-08-20T18:19:23.271Z,1.87
2018-08-20T18:21:51.411Z,2.40
2018-08-20T18:24:21.036Z,1.70
2018-08-20T18:26:53.397Z,2.50
2018-08-20T18:29:27.383Z,4.53
2018-08-20T18:31:58.204Z,2.30
2018-08-20T18:34:27.462Z,2.53
2018-08-20T18:36:55.681Z,2.53
2018-08-20T18:39:24.677Z,2.53
2018-08-20T18:41:59.322Z,2.43
2018-08-20T18:44:27.577Z,2.70
2018-08-20T18:46:56.816Z,3.50
2018-08-20T18:49:25.036Z,2.57
2018-08-20T18:52:01.649Z,2.50
2018-08-20T18:54:34.467Z,2.90
2018-08-20T18:57:07.904Z,2.67
2018-08-20T18:59:37.283Z,4.67
2018-08-20T19:02:05.874Z,2.60
2018-08-20T19:04:40.511Z,3.07
2018-08-20T19:07:13.335Z,2.67
2018-08-20T19:09:46.373Z,4.13
2018-08-20T19:12:15.258Z,3.13
2018-08-20T19:14:43.353Z,2.93
2018-08-20T19:17:16.803Z,3.73
2018-08-20T19:19:47.640Z,2.90
2018-08-20T19:22:21.172Z,3.43
2018-08-20T19:24:50.191Z,2.47
2018-08-20T19:27:18.735Z,2.97
2018-08-20T19:29:47.120Z,2.90
2018-08-20T19:32:15.362Z,3.03
2018-08-20T19:34:44.333Z,3.67
2018-08-20T19:37:13.375Z,3.70
2018-08-20T19:39:52.912Z,4.33
2018-08-20T19:42:28.826Z,4.03
2018-08-20T19:44:57.166Z,4.00
2018-08-20T19:47:25.363Z,3.80
2018-08-20T19:49:56.023Z,4.77
2018-08-20T19:52:24.293Z,3.50
2018-08-20T19:55:00.348Z,3.23
2018-08-20T19:57:28.563Z,3.70
2018-08-20T19:59:56.840Z,3.60
2018-08-20T20:02:30.821Z,4.30
2018-08-20T20:05:04.260Z,3.27
2018-08-20T20:07:33.989Z,4.07
2018-08-20T20:10:07.300Z,5.20
2018-08-20T20:12:40.694Z,3.83
2018-08-20T20:15:09.411Z,4.40
2018-08-20T20:17:38.380Z,2.83
2018-08-20T20:20:11.061Z,3.57
2018-08-20T20:23:00.620Z,4.00
2018-08-20T20:25:28.823Z,4.43
2018-08-20T20:27:58.681Z,4.43
2018-08-20T20:30:27.701Z,3.47
2018-08-20T20:32:56.468Z,4.23
2018-08-20T20:35:24.623Z,3.53
2018-08-20T20:37:52.845Z,4.30
2018-08-20T20:40:21.625Z,3.30
2018-08-20T20:42:50.628Z,3.33
2018-08-20T20:45:19.809Z,2.93
2018-08-20T20:47:48.473Z,3.07
2018-08-20T20:50:17.565Z,3.23
2018-08-20T20:52:46.700Z,3.10
2018-08-20T20:55:17.815Z,2.53
2018-08-20T20:57:45.997Z,3.10
2018-08-20T21:00:14.657Z,3.20
2018-08-20T21:02:46.658Z,5.30
2018-08-20T21:05:15.308Z,3.00
2018-08-20T21:07:47.977Z,3.93
2018-08-20T21:10:21.260Z,3.93
2018-08-20T21:12:49.689Z,3.47
2018-08-20T21:15:25.685Z,3.60
2018-08-20T21:17:57.362Z,4.63
2018-08-20T21:20:27.169Z,3.83
2018-08-20T21:23:06.861Z,4.30
2018-08-20T21:25:37.723Z,4.30
2018-08-20T21:28:09.004Z,5.57
2018-08-20T21:30:42.636Z,4.77
2018-08-20T21:33:11.906Z,4.23
2018-08-20T21:35:41.657Z,15.30
2018-08-20T21:38:09.821Z,5.70
2018-08-20T21:40:38.479Z,8.73
2018-08-20T21:43:11.683Z,4.07
2018-08-20T21:45:40.630Z,5.17
2018-08-20T21:48:08.872Z,4.80
2018-08-20T21:50:37.985Z,4.30
2018-08-20T21:53:06.170Z,4.20
2018-08-20T21:55:34.656Z,3.90
2018-08-20T21:58:02.777Z,4.23
2018-08-20T22:00:31.012Z,3.63
2018-08-20T22:03:02.331Z,3.73
2018-08-20T22:05:30.778Z,4.57
2018-08-20T22:07:59.969Z,3.80
2018-08-20T22:10:30.321Z,3.63
2018-08-20T22:12:58.841Z,3.27
2018-08-20T22:15:26.909Z,4.23
2018-08-20T22:17:55.015Z,3.87
2018-08-20T22:20:23.212Z,3.70
2018-08-20T22:22:51.275Z,4.80
2018-08-20T22:25:19.342Z,3.90
2018-08-20T22:27:52.703Z,4.30
2018-08-20T22:30:20.775Z,4.50
2018-08-20T22:32:48.843Z,4.30
2018-08-20T22:35:22.184Z,3.60
2018-08-20T22:37:51.148Z,4.20
2018-08-20T22:40:19.759Z,4.33
2018-08-20T22:42:50.229Z,4.73
2018-08-20T22:45:19.465Z,5.00
2018-08-20T22:47:48.384Z,4.70
2018-08-20T22:50:16.500Z,4.30
2018-08-20T22:52:45.913Z,4.80
2018-08-20T22:55:15.520Z,4.70
2018-08-20T22:57:49.954Z,4.03
2018-08-20T23:00:24.173Z,5.00
2018-08-20T23:02:53.552Z,4.50
2018-08-20T23:05:21.626Z,4.63
2018-08-20T23:07:49.767Z,5.67
2018-08-20T23:10:17.837Z,5.50
2018-08-20T23:12:45.906Z,5.50
2018-08-20T23:15:14.442Z,5.33
2018-08-20T23:17:42.563Z,6.30
2018-08-20T23:20:17.587Z,5.83
2018-08-20T23:22:45.820Z,6.20
2018-08-20T23:25:14.043Z,6.00
2018-08-20T23:27:42.267Z,6.27
2018-08-20T23:30:11.415Z,6.83
2018-08-20T23:32:39.591Z,5.77
2018-08-20T23:35:07.692Z,7.30
2018-08-20T23:37:35.995Z,7.50
2018-08-20T23:40:04.735Z,5.27
2018-08-20T23:42:32.808Z,5.57
2018-08-20T23:45:00.877Z,5.83
2018-08-20T23:47:28.956Z,6.97
2018-08-20T23:49:57.088Z,6.93
2018-08-20T23:52:25.146Z,7.00
2018-08-20T23:54:53.224Z,6.10
2018-08-20T23:57:21.296Z,6.20
2018-08-20T23:59:49.387Z,6.83
